sensor_id;sensor_type;location;lat;lon;timestamp;P1;durP1;ratioP1;P2;durP2;ratioP2
19231;SDS011;9750;48.730;10.294;2024-01-30T00:00:33;23.13;;;18.17;;
19231;SDS011;9750;48.730;10.294;2024-01-30T00:03:01;23.83;;;19.17;;
19231;SDS011;9750;48.730;10.294;2024-01-30T00:08:50;22.37;;;17.50;;
19231;SDS011;9750;48.730;10.294;2024-01-30T00:11:18;20.90;;;18.40;;
19231;SDS011;9750;48.730;10.294;2024-01-30T00:13:46;22.60;;;18.20;;
19231;SDS011;9750;48.730;10.294;2024-01-30T00:16:20;23.60;;;17.47;;
19231;SDS011;9750;48.730;10.294;2024-01-30T00:18:49;20.30;;;15.83;;
19231;SDS011;9750;48.730;10.294;2024-01-30T00:21:16;25.00;;;19.50;;
19231;SDS011;9750;48.730;10.294;2024-01-30T00:23:44;28.83;;;22.53;;
19231;SDS011;9750;48.730;10.294;2024-01-30T00:26:13;27.57;;;20.70;;
19231;SDS011;9750;48.730;10.294;2024-01-30T00:28:41;27.07;;;20.27;;
19231;SDS011;9750;48.730;10.294;2024-01-30T00:31:08;23.40;;;18.73;;
19231;SDS011;9750;48.730;10.294;2024-01-30T00:33:37;21.60;;;17.50;;
19231;SDS011;9750;48.730;10.294;2024-01-30T00:39:26;21.93;;;16.73;;
19231;SDS011;9750;48.730;10.294;2024-01-30T00:41:55;18.23;;;14.73;;
19231;SDS011;9750;48.730;10.294;2024-01-30T00:44:22;21.53;;;16.50;;
19231;SDS011;9750;48.730;10.294;2024-01-30T00:46:50;19.80;;;15.63;;
19231;SDS011;9750;48.730;10.294;2024-01-30T00:49:17;22.30;;;17.37;;
19231;SDS011;9750;48.730;10.294;2024-01-30T00:51:45;22.77;;;18.03;;
19231;SDS011;9750;48.730;10.294;2024-01-30T00:54:12;21.13;;;17.43;;
19231;SDS011;9750;48.730;10.294;2024-01-30T00:56:40;19.53;;;16.60;;
19231;SDS011;9750;48.730;10.294;2024-01-30T00:59:09;26.13;;;19.83;;
19231;SDS011;9750;48.730;10.294;2024-01-30T01:01:37;24.83;;;19.73;;
19231;SDS011;9750;48.730;10.294;2024-01-30T01:04:04;23.20;;;19.03;;
19231;SDS011;9750;48.730;10.294;2024-01-30T01:06:30;22.67;;;18.03;;
19231;SDS011;9750;48.730;10.294;2024-01-30T01:08:58;26.07;;;20.43;;
19231;SDS011;9750;48.730;10.294;2024-01-30T01:11:25;23.83;;;19.03;;
19231;SDS011;9750;48.730;10.294;2024-01-30T01:13:52;24.27;;;19.73;;
19231;SDS011;9750;48.730;10.294;2024-01-30T01:16:21;23.37;;;17.87;;
19231;SDS011;9750;48.730;10.294;2024-01-30T01:18:48;20.33;;;17.73;;
19231;SDS011;9750;48.730;10.294;2024-01-30T01:21:17;23.23;;;19.03;;
19231;SDS011;9750;48.730;10.294;2024-01-30T01:23:44;18.83;;;16.67;;
19231;SDS011;9750;48.730;10.294;2024-01-30T01:26:11;20.10;;;17.37;;
19231;SDS011;9750;48.730;10.294;2024-01-30T01:28:40;19.23;;;16.30;;
19231;SDS011;9750;48.730;10.294;2024-01-30T01:31:07;20.67;;;16.97;;
19231;SDS011;9750;48.730;10.294;2024-01-30T01:33:37;17.90;;;15.83;;
19231;SDS011;9750;48.730;10.294;2024-01-30T01:36:04;17.17;;;15.33;;
19231;SDS011;9750;48.730;10.294;2024-01-30T01:38:32;19.00;;;15.97;;
19231;SDS011;9750;48.730;10.294;2024-01-30T01:40:59;19.70;;;16.83;;
19231;SDS011;9750;48.730;10.294;2024-01-30T01:43:26;21.20;;;17.50;;
19231;SDS011;9750;48.730;10.294;2024-01-30T01:45:54;19.77;;;17.13;;
19231;SDS011;9750;48.730;10.294;2024-01-30T01:48:21;21.57;;;16.40;;
19231;SDS011;9750;48.730;10.294;2024-01-30T01:50:50;24.70;;;17.33;;
19231;SDS011;9750;48.730;10.294;2024-01-30T01:53:19;18.83;;;15.57;;
19231;SDS011;9750;48.730;10.294;2024-01-30T01:55:46;21.40;;;17.13;;
19231;SDS011;9750;48.730;10.294;2024-01-30T01:58:14;20.47;;;18.00;;
19231;SDS011;9750;48.730;10.294;2024-01-30T02:00:42;20.13;;;16.77;;
19231;SDS011;9750;48.730;10.294;2024-01-30T02:03:10;18.63;;;16.60;;
19231;SDS011;9750;48.730;10.294;2024-01-30T02:05:38;21.77;;;17.20;;
19231;SDS011;9750;48.730;10.294;2024-01-30T02:08:09;18.37;;;16.03;;
19231;SDS011;9750;48.730;10.294;2024-01-30T02:10:36;21.20;;;17.20;;
19231;SDS011;9750;48.730;10.294;2024-01-30T02:13:03;22.80;;;18.23;;
19231;SDS011;9750;48.730;10.294;2024-01-30T02:15:33;18.73;;;16.10;;
19231;SDS011;9750;48.730;10.294;2024-01-30T02:18:00;17.70;;;15.43;;
19231;SDS011;9750;48.730;10.294;2024-01-30T02:20:28;21.20;;;15.63;;
19231;SDS011;9750;48.730;10.294;2024-01-30T02:22:58;19.63;;;15.40;;
19231;SDS011;9750;48.730;10.294;2024-01-30T02:25:31;20.47;;;16.13;;
19231;SDS011;9750;48.730;10.294;2024-01-30T02:27:59;19.47;;;15.60;;
19231;SDS011;9750;48.730;10.294;2024-01-30T02:30:26;19.13;;;16.23;;
19231;SDS011;9750;48.730;10.294;2024-01-30T02:32:54;20.60;;;16.60;;
19231;SDS011;9750;48.730;10.294;2024-01-30T02:35:21;21.77;;;16.87;;
19231;SDS011;9750;48.730;10.294;2024-01-30T02:37:48;20.97;;;16.60;;
19231;SDS011;9750;48.730;10.294;2024-01-30T02:40:17;21.40;;;16.43;;
19231;SDS011;9750;48.730;10.294;2024-01-30T02:42:44;21.97;;;18.03;;
19231;SDS011;9750;48.730;10.294;2024-01-30T02:45:12;21.67;;;17.40;;
19231;SDS011;9750;48.730;10.294;2024-01-30T02:47:40;21.23;;;17.43;;
19231;SDS011;9750;48.730;10.294;2024-01-30T02:50:07;20.50;;;15.87;;
19231;SDS011;9750;48.730;10.294;2024-01-30T02:52:35;22.03;;;16.80;;
19231;SDS011;9750;48.730;10.294;2024-01-30T02:55:03;18.57;;;16.10;;
19231;SDS011;9750;48.730;10.294;2024-01-30T02:57:32;18.40;;;16.27;;
19231;SDS011;9750;48.730;10.294;2024-01-30T02:59:59;20.97;;;15.83;;
19231;SDS011;9750;48.730;10.294;2024-01-30T03:02:27;20.87;;;16.80;;
19231;SDS011;9750;48.730;10.294;2024-01-30T03:04:54;18.77;;;16.77;;
19231;SDS011;9750;48.730;10.294;2024-01-30T03:07:21;19.93;;;14.97;;
19231;SDS011;9750;48.730;10.294;2024-01-30T03:09:49;20.20;;;16.67;;
19231;SDS011;9750;48.730;10.294;2024-01-30T03:12:16;18.13;;;15.90;;
19231;SDS011;9750;48.730;10.294;2024-01-30T03:14:45;17.67;;;15.77;;
19231;SDS011;9750;48.730;10.294;2024-01-30T03:17:12;19.90;;;16.80;;
19231;SDS011;9750;48.730;10.294;2024-01-30T03:19:40;20.80;;;17.60;;
19231;SDS011;9750;48.730;10.294;2024-01-30T03:22:07;19.37;;;16.40;;
19231;SDS011;9750;48.730;10.294;2024-01-30T03:24:34;19.47;;;17.27;;
19231;SDS011;9750;48.730;10.294;2024-01-30T03:27:02;20.03;;;16.33;;
19231;SDS011;9750;48.730;10.294;2024-01-30T03:29:29;23.43;;;18.13;;
19231;SDS011;9750;48.730;10.294;2024-01-30T03:31:58;22.93;;;19.53;;
19231;SDS011;9750;48.730;10.294;2024-01-30T03:34:25;24.83;;;18.80;;
19231;SDS011;9750;48.730;10.294;2024-01-30T03:36:53;24.90;;;18.07;;
19231;SDS011;9750;48.730;10.294;2024-01-30T03:39:20;20.40;;;17.43;;
19231;SDS011;9750;48.730;10.294;2024-01-30T03:41:47;19.43;;;15.77;;
19231;SDS011;9750;48.730;10.294;2024-01-30T03:44:15;19.93;;;17.20;;
19231;SDS011;9750;48.730;10.294;2024-01-30T03:46:42;21.87;;;17.87;;
19231;SDS011;9750;48.730;10.294;2024-01-30T03:49:11;21.80;;;18.07;;
19231;SDS011;9750;48.730;10.294;2024-01-30T03:51:38;23.50;;;17.83;;
19231;SDS011;9750;48.730;10.294;2024-01-30T03:54:06;22.67;;;18.50;;
19231;SDS011;9750;48.730;10.294;2024-01-30T03:56:36;22.73;;;17.80;;
19231;SDS011;9750;48.730;10.294;2024-01-30T03:59:03;21.90;;;16.47;;
19231;SDS011;9750;48.730;10.294;2024-01-30T04:01:31;23.30;;;17.37;;
19231;SDS011;9750;48.730;10.294;2024-01-30T04:03:58;18.20;;;16.03;;
19231;SDS011;9750;48.730;10.294;2024-01-30T04:06:27;23.83;;;17.43;;
19231;SDS011;9750;48.730;10.294;2024-01-30T04:08:54;23.80;;;18.63;;
19231;SDS011;9750;48.730;10.294;2024-01-30T04:11:22;21.93;;;17.10;;
19231;SDS011;9750;48.730;10.294;2024-01-30T04:13:49;22.10;;;17.13;;
19231;SDS011;9750;48.730;10.294;2024-01-30T04:16:19;21.37;;;16.03;;
19231;SDS011;9750;48.730;10.294;2024-01-30T04:18:47;24.83;;;18.27;;
19231;SDS011;9750;48.730;10.294;2024-01-30T04:21:15;24.00;;;17.23;;
19231;SDS011;9750;48.730;10.294;2024-01-30T04:23:44;21.00;;;16.40;;
19231;SDS011;9750;48.730;10.294;2024-01-30T04:29:01;22.67;;;17.67;;
19231;SDS011;9750;48.730;10.294;2024-01-30T04:31:29;22.17;;;17.40;;
19231;SDS011;9750;48.730;10.294;2024-01-30T04:33:56;19.30;;;16.53;;
19231;SDS011;9750;48.730;10.294;2024-01-30T04:36:24;23.87;;;18.10;;
19231;SDS011;9750;48.730;10.294;2024-01-30T04:38:57;20.30;;;17.13;;
19231;SDS011;9750;48.730;10.294;2024-01-30T04:41:25;22.47;;;18.30;;
19231;SDS011;9750;48.730;10.294;2024-01-30T04:43:59;22.80;;;17.43;;
19231;SDS011;9750;48.730;10.294;2024-01-30T04:46:26;21.33;;;17.57;;
19231;SDS011;9750;48.730;10.294;2024-01-30T04:48:54;23.57;;;17.70;;
19231;SDS011;9750;48.730;10.294;2024-01-30T04:51:21;24.03;;;16.50;;
19231;SDS011;9750;48.730;10.294;2024-01-30T04:53:49;23.40;;;18.77;;
19231;SDS011;9750;48.730;10.294;2024-01-30T04:58:49;24.37;;;19.00;;
19231;SDS011;9750;48.730;10.294;2024-01-30T05:01:17;26.77;;;19.33;;
19231;SDS011;9750;48.730;10.294;2024-01-30T05:03:44;27.77;;;21.40;;
19231;SDS011;9750;48.730;10.294;2024-01-30T05:06:11;22.33;;;19.30;;
19231;SDS011;9750;48.730;10.294;2024-01-30T05:08:39;21.83;;;18.70;;
19231;SDS011;9750;48.730;10.294;2024-01-30T05:11:06;21.47;;;17.93;;
19231;SDS011;9750;48.730;10.294;2024-01-30T05:13:35;23.70;;;19.13;;
19231;SDS011;9750;48.730;10.294;2024-01-30T05:16:03;25.20;;;18.03;;
19231;SDS011;9750;48.730;10.294;2024-01-30T05:18:34;23.17;;;18.43;;
19231;SDS011;9750;48.730;10.294;2024-01-30T05:21:02;21.57;;;18.10;;
19231;SDS011;9750;48.730;10.294;2024-01-30T05:23:35;25.53;;;19.47;;
19231;SDS011;9750;48.730;10.294;2024-01-30T05:29:34;26.93;;;19.20;;
19231;SDS011;9750;48.730;10.294;2024-01-30T05:32:02;25.20;;;17.87;;
19231;SDS011;9750;48.730;10.294;2024-01-30T05:34:30;22.63;;;18.27;;
19231;SDS011;9750;48.730;10.294;2024-01-30T05:36:58;25.40;;;19.30;;
19231;SDS011;9750;48.730;10.294;2024-01-30T05:39:25;22.07;;;18.20;;
19231;SDS011;9750;48.730;10.294;2024-01-30T05:41:52;25.43;;;19.97;;
19231;SDS011;9750;48.730;10.294;2024-01-30T05:44:20;23.73;;;17.70;;
19231;SDS011;9750;48.730;10.294;2024-01-30T05:46:49;24.20;;;18.70;;
19231;SDS011;9750;48.730;10.294;2024-01-30T05:49:16;24.27;;;17.80;;
19231;SDS011;9750;48.730;10.294;2024-01-30T05:51:43;19.17;;;16.53;;
19231;SDS011;9750;48.730;10.294;2024-01-30T05:54:10;25.13;;;17.93;;
19231;SDS011;9750;48.730;10.294;2024-01-30T05:56:38;27.63;;;20.10;;
19231;SDS011;9750;48.730;10.294;2024-01-30T05:59:05;23.70;;;18.10;;
19231;SDS011;9750;48.730;10.294;2024-01-30T06:01:32;26.20;;;19.20;;
19231;SDS011;9750;48.730;10.294;2024-01-30T06:04:01;23.83;;;18.10;;
19231;SDS011;9750;48.730;10.294;2024-01-30T06:06:28;23.50;;;17.70;;
19231;SDS011;9750;48.730;10.294;2024-01-30T06:08:56;34.30;;;27.63;;
19231;SDS011;9750;48.730;10.294;2024-01-30T06:11:23;28.37;;;22.13;;
19231;SDS011;9750;48.730;10.294;2024-01-30T06:13:50;27.73;;;19.77;;
19231;SDS011;9750;48.730;10.294;2024-01-30T06:19:40;23.40;;;18.03;;
19231;SDS011;9750;48.730;10.294;2024-01-30T06:22:08;26.40;;;19.83;;
19231;SDS011;9750;48.730;10.294;2024-01-30T06:24:35;35.13;;;25.03;;
19231;SDS011;9750;48.730;10.294;2024-01-30T06:27:02;27.03;;;19.80;;
19231;SDS011;9750;48.730;10.294;2024-01-30T06:29:30;28.40;;;21.93;;
19231;SDS011;9750;48.730;10.294;2024-01-30T06:31:57;29.43;;;21.87;;
19231;SDS011;9750;48.730;10.294;2024-01-30T06:34:25;29.93;;;21.93;;
19231;SDS011;9750;48.730;10.294;2024-01-30T06:43:17;30.37;;;22.73;;
19231;SDS011;9750;48.730;10.294;2024-01-30T06:45:44;28.47;;;21.43;;
19231;SDS011;9750;48.730;10.294;2024-01-30T06:48:11;27.17;;;19.70;;
19231;SDS011;9750;48.730;10.294;2024-01-30T06:50:39;27.13;;;20.77;;
19231;SDS011;9750;48.730;10.294;2024-01-30T06:53:06;33.47;;;27.88;;
19231;SDS011;9750;48.730;10.294;2024-01-30T06:55:33;41.63;;;31.20;;
19231;SDS011;9750;48.730;10.294;2024-01-30T06:58:02;34.47;;;25.60;;
19231;SDS011;9750;48.730;10.294;2024-01-30T07:00:30;41.07;;;30.23;;
19231;SDS011;9750;48.730;10.294;2024-01-30T07:02:57;37.63;;;27.43;;
19231;SDS011;9750;48.730;10.294;2024-01-30T07:08:46;35.53;;;28.53;;
19231;SDS011;9750;48.730;10.294;2024-01-30T07:11:18;34.37;;;27.27;;
19231;SDS011;9750;48.730;10.294;2024-01-30T07:13:48;41.30;;;32.10;;
19231;SDS011;9750;48.730;10.294;2024-01-30T07:16:16;47.63;;;34.33;;
19231;SDS011;9750;48.730;10.294;2024-01-30T07:18:43;46.93;;;33.73;;
19231;SDS011;9750;48.730;10.294;2024-01-30T07:21:12;40.93;;;32.97;;
19231;SDS011;9750;48.730;10.294;2024-01-30T07:23:40;39.50;;;31.43;;
19231;SDS011;9750;48.730;10.294;2024-01-30T07:26:07;47.17;;;35.47;;
19231;SDS011;9750;48.730;10.294;2024-01-30T07:28:34;55.37;;;42.47;;
19231;SDS011;9750;48.730;10.294;2024-01-30T07:31:03;53.63;;;38.97;;
19231;SDS011;9750;48.730;10.294;2024-01-30T07:33:31;47.83;;;36.83;;
19231;SDS011;9750;48.730;10.294;2024-01-30T07:35:58;54.60;;;40.47;;
19231;SDS011;9750;48.730;10.294;2024-01-30T07:38:26;52.10;;;39.47;;
19231;SDS011;9750;48.730;10.294;2024-01-30T07:40:53;54.43;;;40.43;;
19231;SDS011;9750;48.730;10.294;2024-01-30T07:43:20;58.63;;;43.77;;
19231;SDS011;9750;48.730;10.294;2024-01-30T07:45:47;57.47;;;46.20;;
19231;SDS011;9750;48.730;10.294;2024-01-30T07:48:16;52.53;;;40.43;;
19231;SDS011;9750;48.730;10.294;2024-01-30T07:50:43;50.17;;;39.10;;
19231;SDS011;9750;48.730;10.294;2024-01-30T07:53:11;42.30;;;35.07;;
19231;SDS011;9750;48.730;10.294;2024-01-30T07:58:45;51.57;;;38.83;;
19231;SDS011;9750;48.730;10.294;2024-01-30T08:01:14;53.33;;;42.33;;
19231;SDS011;9750;48.730;10.294;2024-01-30T08:03:43;50.93;;;41.67;;
19231;SDS011;9750;48.730;10.294;2024-01-30T08:08:57;66.50;;;50.20;;
19231;SDS011;9750;48.730;10.294;2024-01-30T08:11:24;70.30;;;54.83;;
19231;SDS011;9750;48.730;10.294;2024-01-30T08:13:54;78.90;;;62.07;;
19231;SDS011;9750;48.730;10.294;2024-01-30T08:16:21;76.03;;;59.07;;
19231;SDS011;9750;48.730;10.294;2024-01-30T08:18:50;43.93;;;37.30;;
19231;SDS011;9750;48.730;10.294;2024-01-30T08:21:18;38.87;;;30.17;;
19231;SDS011;9750;48.730;10.294;2024-01-30T08:23:45;39.17;;;32.17;;
19231;SDS011;9750;48.730;10.294;2024-01-30T08:26:13;34.37;;;29.23;;
19231;SDS011;9750;48.730;10.294;2024-01-30T08:28:40;33.90;;;29.00;;
19231;SDS011;9750;48.730;10.294;2024-01-30T08:31:09;35.20;;;29.00;;
19231;SDS011;9750;48.730;10.294;2024-01-30T08:33:37;39.20;;;30.93;;
19231;SDS011;9750;48.730;10.294;2024-01-30T08:38:52;41.00;;;33.20;;
19231;SDS011;9750;48.730;10.294;2024-01-30T08:41:19;40.33;;;34.53;;
19231;SDS011;9750;48.730;10.294;2024-01-30T08:43:46;57.43;;;43.73;;
19231;SDS011;9750;48.730;10.294;2024-01-30T08:46:17;55.83;;;44.53;;
19231;SDS011;9750;48.730;10.294;2024-01-30T08:48:44;56.47;;;43.90;;
19231;SDS011;9750;48.730;10.294;2024-01-30T08:51:12;50.40;;;41.43;;
19231;SDS011;9750;48.730;10.294;2024-01-30T08:53:42;43.73;;;35.03;;
19231;SDS011;9750;48.730;10.294;2024-01-30T08:56:16;39.10;;;30.80;;
19231;SDS011;9750;48.730;10.294;2024-01-30T08:58:43;38.03;;;31.50;;
19231;SDS011;9750;48.730;10.294;2024-01-30T09:01:11;38.57;;;31.93;;
19231;SDS011;9750;48.730;10.294;2024-01-30T09:03:38;41.97;;;34.93;;
19231;SDS011;9750;48.730;10.294;2024-01-30T09:06:08;39.13;;;32.87;;
19231;SDS011;9750;48.730;10.294;2024-01-30T09:08:37;47.27;;;40.33;;
19231;SDS011;9750;48.730;10.294;2024-01-30T09:11:09;61.40;;;51.30;;
19231;SDS011;9750;48.730;10.294;2024-01-30T09:13:36;64.83;;;50.23;;
19231;SDS011;9750;48.730;10.294;2024-01-30T09:16:04;59.57;;;46.97;;
19231;SDS011;9750;48.730;10.294;2024-01-30T09:18:32;54.87;;;43.13;;
19231;SDS011;9750;48.730;10.294;2024-01-30T09:20:59;63.40;;;46.30;;
19231;SDS011;9750;48.730;10.294;2024-01-30T09:23:27;60.23;;;47.77;;
19231;SDS011;9750;48.730;10.294;2024-01-30T09:25:54;54.80;;;43.10;;
19231;SDS011;9750;48.730;10.294;2024-01-30T09:28:23;40.70;;;35.47;;
19231;SDS011;9750;48.730;10.294;2024-01-30T09:30:51;42.50;;;37.40;;
19231;SDS011;9750;48.730;10.294;2024-01-30T09:33:19;41.57;;;33.93;;
19231;SDS011;9750;48.730;10.294;2024-01-30T09:35:46;39.43;;;33.43;;
19231;SDS011;9750;48.730;10.294;2024-01-30T09:38:13;41.80;;;34.47;;
19231;SDS011;9750;48.730;10.294;2024-01-30T09:40:40;42.87;;;35.47;;
19231;SDS011;9750;48.730;10.294;2024-01-30T09:43:08;46.70;;;41.33;;
19231;SDS011;9750;48.730;10.294;2024-01-30T09:45:44;45.53;;;38.27;;
19231;SDS011;9750;48.730;10.294;2024-01-30T09:48:13;44.33;;;36.77;;
19231;SDS011;9750;48.730;10.294;2024-01-30T09:50:41;41.83;;;35.87;;
19231;SDS011;9750;48.730;10.294;2024-01-30T09:53:08;45.20;;;38.03;;
19231;SDS011;9750;48.730;10.294;2024-01-30T09:55:35;39.77;;;31.73;;
19231;SDS011;9750;48.730;10.294;2024-01-30T09:58:03;31.07;;;26.80;;
19231;SDS011;9750;48.730;10.294;2024-01-30T10:00:30;33.10;;;26.60;;
19231;SDS011;9750;48.730;10.294;2024-01-30T10:02:59;34.43;;;28.63;;
19231;SDS011;9750;48.730;10.294;2024-01-30T10:05:26;31.67;;;27.20;;
19231;SDS011;9750;48.730;10.294;2024-01-30T10:07:54;35.67;;;30.37;;
19231;SDS011;9750;48.730;10.294;2024-01-30T10:10:24;38.23;;;33.60;;
19231;SDS011;9750;48.730;10.294;2024-01-30T10:12:51;41.03;;;35.00;;
19231;SDS011;9750;48.730;10.294;2024-01-30T10:15:19;42.13;;;35.33;;
19231;SDS011;9750;48.730;10.294;2024-01-30T10:17:46;44.70;;;36.63;;
19231;SDS011;9750;48.730;10.294;2024-01-30T10:20:15;38.40;;;33.43;;
19231;SDS011;9750;48.730;10.294;2024-01-30T10:22:43;41.10;;;34.27;;
19231;SDS011;9750;48.730;10.294;2024-01-30T10:25:11;38.43;;;32.93;;
19231;SDS011;9750;48.730;10.294;2024-01-30T10:27:39;38.37;;;32.00;;
19231;SDS011;9750;48.730;10.294;2024-01-30T10:30:06;36.87;;;30.50;;
19231;SDS011;9750;48.730;10.294;2024-01-30T10:32:34;34.87;;;29.50;;
19231;SDS011;9750;48.730;10.294;2024-01-30T10:35:02;32.77;;;27.33;;
19231;SDS011;9750;48.730;10.294;2024-01-30T10:37:31;29.33;;;25.83;;
19231;SDS011;9750;48.730;10.294;2024-01-30T10:39:59;29.13;;;25.63;;
19231;SDS011;9750;48.730;10.294;2024-01-30T10:42:31;31.60;;;25.70;;
19231;SDS011;9750;48.730;10.294;2024-01-30T10:45:00;34.07;;;27.20;;
19231;SDS011;9750;48.730;10.294;2024-01-30T10:47:34;30.07;;;26.10;;
19231;SDS011;9750;48.730;10.294;2024-01-30T10:50:02;33.40;;;28.23;;
19231;SDS011;9750;48.730;10.294;2024-01-30T10:52:31;31.00;;;27.73;;
19231;SDS011;9750;48.730;10.294;2024-01-30T10:54:59;29.53;;;26.37;;
19231;SDS011;9750;48.730;10.294;2024-01-30T10:57:27;31.83;;;27.73;;
19231;SDS011;9750;48.730;10.294;2024-01-30T10:59:55;35.77;;;27.70;;
19231;SDS011;9750;48.730;10.294;2024-01-30T11:02:24;30.97;;;26.87;;
19231;SDS011;9750;48.730;10.294;2024-01-30T11:05:00;31.27;;;27.07;;
19231;SDS011;9750;48.730;10.294;2024-01-30T11:07:28;31.00;;;27.73;;
19231;SDS011;9750;48.730;10.294;2024-01-30T11:10:00;31.43;;;25.47;;
19231;SDS011;9750;48.730;10.294;2024-01-30T11:12:28;32.93;;;27.10;;
19231;SDS011;9750;48.730;10.294;2024-01-30T11:17:39;27.57;;;23.93;;
19231;SDS011;9750;48.730;10.294;2024-01-30T11:20:09;33.93;;;29.17;;
19231;SDS011;9750;48.730;10.294;2024-01-30T11:25:28;31.30;;;27.07;;
19231;SDS011;9750;48.730;10.294;2024-01-30T11:27:58;45.30;;;34.53;;
19231;SDS011;9750;48.730;10.294;2024-01-30T11:30:26;26.53;;;23.30;;
19231;SDS011;9750;48.730;10.294;2024-01-30T11:32:58;25.87;;;22.73;;
19231;SDS011;9750;48.730;10.294;2024-01-30T11:35:26;39.17;;;31.93;;
19231;SDS011;9750;48.730;10.294;2024-01-30T11:37:55;26.97;;;23.63;;
19231;SDS011;9750;48.730;10.294;2024-01-30T11:40:25;30.00;;;26.67;;
19231;SDS011;9750;48.730;10.294;2024-01-30T11:42:54;26.57;;;23.17;;
19231;SDS011;9750;48.730;10.294;2024-01-30T11:45:21;26.40;;;22.47;;
19231;SDS011;9750;48.730;10.294;2024-01-30T11:47:49;26.17;;;23.23;;
19231;SDS011;9750;48.730;10.294;2024-01-30T11:50:16;26.33;;;22.73;;
19231;SDS011;9750;48.730;10.294;2024-01-30T11:52:44;27.77;;;22.63;;
19231;SDS011;9750;48.730;10.294;2024-01-30T11:55:13;25.10;;;21.13;;
19231;SDS011;9750;48.730;10.294;2024-01-30T11:57:41;26.07;;;22.00;;
19231;SDS011;9750;48.730;10.294;2024-01-30T12:00:14;26.13;;;22.07;;
19231;SDS011;9750;48.730;10.294;2024-01-30T12:02:42;23.37;;;20.97;;
19231;SDS011;9750;48.730;10.294;2024-01-30T12:08:31;25.47;;;22.77;;
19231;SDS011;9750;48.730;10.294;2024-01-30T12:11:00;26.03;;;23.33;;
19231;SDS011;9750;48.730;10.294;2024-01-30T12:13:30;28.80;;;25.70;;
19231;SDS011;9750;48.730;10.294;2024-01-30T12:15:58;31.90;;;28.40;;
19231;SDS011;9750;48.730;10.294;2024-01-30T12:18:26;21.97;;;19.67;;
19231;SDS011;9750;48.730;10.294;2024-01-30T12:20:56;16.70;;;14.90;;
19231;SDS011;9750;48.730;10.294;2024-01-30T12:23:24;16.43;;;14.73;;
19231;SDS011;9750;48.730;10.294;2024-01-30T12:25:52;17.13;;;15.33;;
19231;SDS011;9750;48.730;10.294;2024-01-30T12:28:20;18.17;;;16.17;;
19231;SDS011;9750;48.730;10.294;2024-01-30T12:30:48;23.17;;;20.67;;
19231;SDS011;9750;48.730;10.294;2024-01-30T12:33:18;22.87;;;20.23;;
19231;SDS011;9750;48.730;10.294;2024-01-30T12:35:45;21.13;;;18.73;;
19231;SDS011;9750;48.730;10.294;2024-01-30T12:38:13;21.90;;;19.80;;
19231;SDS011;9750;48.730;10.294;2024-01-30T12:40:40;24.23;;;21.03;;
19231;SDS011;9750;48.730;10.294;2024-01-30T12:43:08;21.13;;;18.80;;
19231;SDS011;9750;48.730;10.294;2024-01-30T12:45:37;25.13;;;22.43;;
19231;SDS011;9750;48.730;10.294;2024-01-30T12:48:04;26.50;;;21.40;;
19231;SDS011;9750;48.730;10.294;2024-01-30T12:50:32;27.90;;;24.50;;
19231;SDS011;9750;48.730;10.294;2024-01-30T12:52:59;29.27;;;26.27;;
19231;SDS011;9750;48.730;10.294;2024-01-30T12:55:27;24.70;;;22.03;;
19231;SDS011;9750;48.730;10.294;2024-01-30T12:57:55;27.30;;;24.07;;
19231;SDS011;9750;48.730;10.294;2024-01-30T13:00:22;32.20;;;28.30;;
19231;SDS011;9750;48.730;10.294;2024-01-30T13:02:51;26.83;;;23.70;;
19231;SDS011;9750;48.730;10.294;2024-01-30T13:05:18;26.17;;;23.07;;
19231;SDS011;9750;48.730;10.294;2024-01-30T13:07:46;29.33;;;26.03;;
19231;SDS011;9750;48.730;10.294;2024-01-30T13:10:13;27.50;;;24.73;;
19231;SDS011;9750;48.730;10.294;2024-01-30T13:12:40;27.43;;;23.83;;
19231;SDS011;9750;48.730;10.294;2024-01-30T13:15:08;26.93;;;24.13;;
19231;SDS011;9750;48.730;10.294;2024-01-30T13:17:36;29.10;;;26.10;;
19231;SDS011;9750;48.730;10.294;2024-01-30T13:20:06;25.93;;;22.77;;
19231;SDS011;9750;48.730;10.294;2024-01-30T13:22:34;23.30;;;20.00;;
19231;SDS011;9750;48.730;10.294;2024-01-30T13:25:03;22.13;;;19.83;;
19231;SDS011;9750;48.730;10.294;2024-01-30T13:27:32;24.10;;;21.03;;
19231;SDS011;9750;48.730;10.294;2024-01-30T13:29:59;21.77;;;19.43;;
19231;SDS011;9750;48.730;10.294;2024-01-30T13:32:26;20.93;;;18.83;;
19231;SDS011;9750;48.730;10.294;2024-01-30T13:34:54;24.73;;;22.00;;
19231;SDS011;9750;48.730;10.294;2024-01-30T13:37:22;26.73;;;23.90;;
19231;SDS011;9750;48.730;10.294;2024-01-30T13:39:50;20.70;;;18.53;;
19231;SDS011;9750;48.730;10.294;2024-01-30T13:42:17;20.07;;;18.07;;
19231;SDS011;9750;48.730;10.294;2024-01-30T13:44:45;20.77;;;18.57;;
19231;SDS011;9750;48.730;10.294;2024-01-30T13:47:12;19.47;;;17.30;;
19231;SDS011;9750;48.730;10.294;2024-01-30T13:49:40;19.87;;;17.50;;
19231;SDS011;9750;48.730;10.294;2024-01-30T13:52:07;23.27;;;20.77;;
19231;SDS011;9750;48.730;10.294;2024-01-30T13:54:36;21.70;;;19.43;;
19231;SDS011;9750;48.730;10.294;2024-01-30T13:57:04;24.97;;;21.80;;
19231;SDS011;9750;48.730;10.294;2024-01-30T13:59:33;22.93;;;20.30;;
19231;SDS011;9750;48.730;10.294;2024-01-30T14:02:00;22.53;;;20.13;;
19231;SDS011;9750;48.730;10.294;2024-01-30T14:04:27;24.43;;;20.47;;
19231;SDS011;9750;48.730;10.294;2024-01-30T14:06:55;23.40;;;20.97;;
19231;SDS011;9750;48.730;10.294;2024-01-30T14:09:25;28.17;;;24.30;;
19231;SDS011;9750;48.730;10.294;2024-01-30T14:11:54;21.27;;;18.70;;
19231;SDS011;9750;48.730;10.294;2024-01-30T14:14:21;19.63;;;17.63;;
19231;SDS011;9750;48.730;10.294;2024-01-30T14:16:48;19.70;;;17.13;;
19231;SDS011;9750;48.730;10.294;2024-01-30T14:19:16;18.37;;;16.50;;
19231;SDS011;9750;48.730;10.294;2024-01-30T14:21:43;18.87;;;16.27;;
19231;SDS011;9750;48.730;10.294;2024-01-30T14:24:11;18.97;;;16.90;;
19231;SDS011;9750;48.730;10.294;2024-01-30T14:26:38;18.93;;;16.97;;
19231;SDS011;9750;48.730;10.294;2024-01-30T14:29:07;27.67;;;24.73;;
19231;SDS011;9750;48.730;10.294;2024-01-30T14:31:34;23.80;;;21.30;;
19231;SDS011;9750;48.730;10.294;2024-01-30T14:34:01;24.33;;;19.63;;
19231;SDS011;9750;48.730;10.294;2024-01-30T14:36:29;19.87;;;17.73;;
19231;SDS011;9750;48.730;10.294;2024-01-30T14:38:56;18.97;;;17.07;;
19231;SDS011;9750;48.730;10.294;2024-01-30T14:41:23;18.37;;;16.47;;
19231;SDS011;9750;48.730;10.294;2024-01-30T14:43:51;19.83;;;17.80;;
19231;SDS011;9750;48.730;10.294;2024-01-30T14:46:20;21.43;;;19.13;;
19231;SDS011;9750;48.730;10.294;2024-01-30T14:48:47;21.17;;;18.10;;
19231;SDS011;9750;48.730;10.294;2024-01-30T14:51:16;21.23;;;18.87;;
19231;SDS011;9750;48.730;10.294;2024-01-30T14:53:43;19.50;;;17.37;;
19231;SDS011;9750;48.730;10.294;2024-01-30T14:56:11;17.87;;;15.97;;
19231;SDS011;9750;48.730;10.294;2024-01-30T14:58:38;19.90;;;16.50;;
19231;SDS011;9750;48.730;10.294;2024-01-30T15:01:06;19.87;;;17.77;;
19231;SDS011;9750;48.730;10.294;2024-01-30T15:03:35;19.60;;;16.10;;
19231;SDS011;9750;48.730;10.294;2024-01-30T15:06:02;19.40;;;16.87;;
19231;SDS011;9750;48.730;10.294;2024-01-30T15:08:30;17.13;;;14.90;;
19231;SDS011;9750;48.730;10.294;2024-01-30T15:10:58;16.90;;;15.10;;